sensor_id;sensor_type;location;lat;lon;timestamp;P1;durP1;ratioP1;P2;durP2;ratioP2
71343;SDS011;59146;43.850;25.948;2023-07-13T00:00:17;26.77;;;14.18;;
71343;SDS011;59146;43.850;25.948;2023-07-13T00:02:42;20.98;;;13.57;;
71343;SDS011;59146;43.850;25.948;2023-07-13T00:05:08;17.48;;;12.82;;
71343;SDS011;59146;43.850;25.948;2023-07-13T00:07:34;22.90;;;12.85;;
71343;SDS011;59146;43.850;25.948;2023-07-13T00:10:00;17.08;;;13.90;;
71343;SDS011;59146;43.850;25.948;2023-07-13T00:12:30;19.65;;;13.50;;
71343;SDS011;59146;43.850;25.948;2023-07-13T00:14:58;23.35;;;13.80;;
71343;SDS011;59146;43.850;25.948;2023-07-13T00:17:25;21.75;;;14.18;;
71343;SDS011;59146;43.850;25.948;2023-07-13T00:19:52;19.63;;;14.10;;
71343;SDS011;59146;43.850;25.948;2023-07-13T00:22:18;18.33;;;14.02;;
71343;SDS011;59146;43.850;25.948;2023-07-13T00:24:44;17.45;;;13.63;;
71343;SDS011;59146;43.850;25.948;2023-07-13T00:27:10;29.60;;;14.10;;
71343;SDS011;59146;43.850;25.948;2023-07-13T00:29:36;20.85;;;14.95;;
71343;SDS011;59146;43.850;25.948;2023-07-13T00:32:05;23.23;;;14.48;;
71343;SDS011;59146;43.850;25.948;2023-07-13T00:34:32;26.95;;;15.05;;
71343;SDS011;59146;43.850;25.948;2023-07-13T00:36:58;26.42;;;15.43;;
71343;SDS011;59146;43.850;25.948;2023-07-13T00:39:24;26.00;;;15.68;;
71343;SDS011;59146;43.850;25.948;2023-07-13T00:41:50;27.65;;;14.65;;
71343;SDS011;59146;43.850;25.948;2023-07-13T00:44:16;19.05;;;14.75;;
71343;SDS011;59146;43.850;25.948;2023-07-13T00:46:42;18.98;;;14.13;;
71343;SDS011;59146;43.850;25.948;2023-07-13T00:49:08;19.90;;;13.82;;
71343;SDS011;59146;43.850;25.948;2023-07-13T00:51:53;19.67;;;13.60;;
71343;SDS011;59146;43.850;25.948;2023-07-13T00:54:25;24.95;;;14.02;;
71343;SDS011;59146;43.850;25.948;2023-07-13T00:56:55;20.40;;;13.82;;
71343;SDS011;59146;43.850;25.948;2023-07-13T00:59:24;19.90;;;14.05;;
71343;SDS011;59146;43.850;25.948;2023-07-13T01:01:50;18.88;;;13.05;;
71343;SDS011;59146;43.850;25.948;2023-07-13T01:04:16;17.67;;;13.52;;
71343;SDS011;59146;43.850;25.948;2023-07-13T01:06:42;22.50;;;13.18;;
71343;SDS011;59146;43.850;25.948;2023-07-13T01:09:09;21.50;;;13.73;;
71343;SDS011;59146;43.850;25.948;2023-07-13T01:11:36;18.10;;;13.55;;
71343;SDS011;59146;43.850;25.948;2023-07-13T01:14:02;19.05;;;14.32;;
71343;SDS011;59146;43.850;25.948;2023-07-13T01:16:30;20.75;;;13.90;;
71343;SDS011;59146;43.850;25.948;2023-07-13T01:18:57;17.30;;;13.10;;
71343;SDS011;59146;43.850;25.948;2023-07-13T01:21:23;19.02;;;13.20;;
71343;SDS011;59146;43.850;25.948;2023-07-13T01:23:49;18.65;;;13.18;;
71343;SDS011;59146;43.850;25.948;2023-07-13T01:26:14;21.88;;;13.65;;
71343;SDS011;59146;43.850;25.948;2023-07-13T01:28:40;33.67;;;13.75;;
71343;SDS011;59146;43.850;25.948;2023-07-13T01:31:05;19.67;;;13.88;;
71343;SDS011;59146;43.850;25.948;2023-07-13T01:33:31;21.00;;;14.07;;
71343;SDS011;59146;43.850;25.948;2023-07-13T01:35:56;16.27;;;13.38;;
71343;SDS011;59146;43.850;25.948;2023-07-13T01:38:24;19.30;;;14.00;;
71343;SDS011;59146;43.850;25.948;2023-07-13T01:40:50;20.15;;;14.35;;
71343;SDS011;59146;43.850;25.948;2023-07-13T01:43:17;21.63;;;13.82;;
71343;SDS011;59146;43.850;25.948;2023-07-13T01:45:43;22.60;;;15.85;;
71343;SDS011;59146;43.850;25.948;2023-07-13T01:48:09;24.17;;;15.25;;
71343;SDS011;59146;43.850;25.948;2023-07-13T01:50:35;29.88;;;15.52;;
71343;SDS011;59146;43.850;25.948;2023-07-13T01:53:01;18.10;;;14.73;;
71343;SDS011;59146;43.850;25.948;2023-07-13T01:55:27;27.67;;;15.45;;
71343;SDS011;59146;43.850;25.948;2023-07-13T01:57:54;22.50;;;14.60;;
71343;SDS011;59146;43.850;25.948;2023-07-13T02:00:20;22.73;;;14.95;;
71343;SDS011;59146;43.850;25.948;2023-07-13T02:02:45;26.10;;;15.07;;
71343;SDS011;59146;43.850;25.948;2023-07-13T02:05:11;23.95;;;16.70;;
71343;SDS011;59146;43.850;25.948;2023-07-13T02:07:38;20.88;;;14.23;;
71343;SDS011;59146;43.850;25.948;2023-07-13T02:10:04;21.30;;;14.77;;
71343;SDS011;59146;43.850;25.948;2023-07-13T02:12:31;26.80;;;15.35;;
71343;SDS011;59146;43.850;25.948;2023-07-13T02:14:56;28.58;;;15.85;;
71343;SDS011;59146;43.850;25.948;2023-07-13T02:17:22;24.55;;;15.88;;
71343;SDS011;59146;43.850;25.948;2023-07-13T02:19:47;21.88;;;15.70;;
71343;SDS011;59146;43.850;25.948;2023-07-13T02:22:13;22.15;;;14.75;;
71343;SDS011;59146;43.850;25.948;2023-07-13T02:24:38;21.67;;;15.90;;
71343;SDS011;59146;43.850;25.948;2023-07-13T02:27:03;17.75;;;14.55;;
71343;SDS011;59146;43.850;25.948;2023-07-13T02:29:29;23.95;;;15.55;;
71343;SDS011;59146;43.850;25.948;2023-07-13T02:31:54;25.20;;;15.30;;
71343;SDS011;59146;43.850;25.948;2023-07-13T02:34:20;27.92;;;15.70;;
71343;SDS011;59146;43.850;25.948;2023-07-13T02:36:45;17.98;;;14.18;;
71343;SDS011;59146;43.850;25.948;2023-07-13T02:39:11;25.45;;;15.73;;
71343;SDS011;59146;43.850;25.948;2023-07-13T02:41:37;20.23;;;13.25;;
71343;SDS011;59146;43.850;25.948;2023-07-13T02:44:03;26.02;;;14.32;;
71343;SDS011;59146;43.850;25.948;2023-07-13T02:46:32;24.92;;;14.45;;
71343;SDS011;59146;43.850;25.948;2023-07-13T02:48:59;21.25;;;13.93;;
71343;SDS011;59146;43.850;25.948;2023-07-13T02:51:25;29.25;;;14.30;;
71343;SDS011;59146;43.850;25.948;2023-07-13T02:53:50;22.73;;;15.23;;
71343;SDS011;59146;43.850;25.948;2023-07-13T02:56:16;24.50;;;15.07;;
71343;SDS011;59146;43.850;25.948;2023-07-13T02:58:41;28.85;;;14.82;;
71343;SDS011;59146;43.850;25.948;2023-07-13T03:01:08;19.20;;;13.30;;
71343;SDS011;59146;43.850;25.948;2023-07-13T03:03:34;15.05;;;12.85;;
71343;SDS011;59146;43.850;25.948;2023-07-13T03:06:00;17.42;;;13.32;;
71343;SDS011;59146;43.850;25.948;2023-07-13T03:08:28;22.73;;;14.07;;
71343;SDS011;59146;43.850;25.948;2023-07-13T03:11:03;21.23;;;13.10;;
71343;SDS011;59146;43.850;25.948;2023-07-13T03:13:31;23.88;;;13.05;;
71343;SDS011;59146;43.850;25.948;2023-07-13T03:15:57;22.30;;;13.18;;
71343;SDS011;59146;43.850;25.948;2023-07-13T03:18:22;19.08;;;14.27;;
71343;SDS011;59146;43.850;25.948;2023-07-13T03:20:51;18.55;;;12.80;;
71343;SDS011;59146;43.850;25.948;2023-07-13T03:23:17;20.48;;;13.48;;
71343;SDS011;59146;43.850;25.948;2023-07-13T03:25:43;21.50;;;12.88;;
71343;SDS011;59146;43.850;25.948;2023-07-13T03:28:10;17.00;;;13.63;;
71343;SDS011;59146;43.850;25.948;2023-07-13T03:30:36;27.10;;;13.60;;
71343;SDS011;59146;43.850;25.948;2023-07-13T03:33:02;23.52;;;13.73;;
71343;SDS011;59146;43.850;25.948;2023-07-13T03:35:27;35.53;;;14.75;;
71343;SDS011;59146;43.850;25.948;2023-07-13T03:37:53;27.17;;;12.68;;
71343;SDS011;59146;43.850;25.948;2023-07-13T03:40:18;21.17;;;12.98;;
71343;SDS011;59146;43.850;25.948;2023-07-13T03:42:44;16.75;;;12.18;;
71343;SDS011;59146;43.850;25.948;2023-07-13T03:45:09;25.10;;;13.20;;
71343;SDS011;59146;43.850;25.948;2023-07-13T03:47:35;29.50;;;13.43;;
71343;SDS011;59146;43.850;25.948;2023-07-13T03:50:00;26.23;;;12.30;;
71343;SDS011;59146;43.850;25.948;2023-07-13T03:52:25;22.38;;;13.80;;
71343;SDS011;59146;43.850;25.948;2023-07-13T03:54:51;21.55;;;12.55;;
71343;SDS011;59146;43.850;25.948;2023-07-13T03:57:16;28.98;;;12.27;;
71343;SDS011;59146;43.850;25.948;2023-07-13T03:59:42;30.10;;;13.07;;
71343;SDS011;59146;43.850;25.948;2023-07-13T04:02:07;23.08;;;12.65;;
71343;SDS011;59146;43.850;25.948;2023-07-13T04:04:33;22.15;;;12.90;;
71343;SDS011;59146;43.850;25.948;2023-07-13T04:06:58;22.15;;;13.15;;
71343;SDS011;59146;43.850;25.948;2023-07-13T04:09:24;23.20;;;13.60;;
71343;SDS011;59146;43.850;25.948;2023-07-13T04:11:50;23.40;;;11.88;;
71343;SDS011;59146;43.850;25.948;2023-07-13T04:14:15;26.27;;;12.02;;
71343;SDS011;59146;43.850;25.948;2023-07-13T04:16:41;15.70;;;12.32;;
71343;SDS011;59146;43.850;25.948;2023-07-13T04:19:07;21.67;;;11.85;;
71343;SDS011;59146;43.850;25.948;2023-07-13T04:21:35;18.55;;;12.65;;
71343;SDS011;59146;43.850;25.948;2023-07-13T04:24:00;15.55;;;11.73;;
71343;SDS011;59146;43.850;25.948;2023-07-13T04:26:26;24.60;;;13.30;;
71343;SDS011;59146;43.850;25.948;2023-07-13T04:28:51;22.05;;;12.65;;
71343;SDS011;59146;43.850;25.948;2023-07-13T04:31:17;20.02;;;12.40;;
71343;SDS011;59146;43.850;25.948;2023-07-13T04:33:43;23.30;;;13.75;;
71343;SDS011;59146;43.850;25.948;2023-07-13T04:36:09;20.77;;;11.93;;
71343;SDS011;59146;43.850;25.948;2023-07-13T04:38:35;21.58;;;12.00;;
71343;SDS011;59146;43.850;25.948;2023-07-13T04:41:01;19.30;;;11.52;;
71343;SDS011;59146;43.850;25.948;2023-07-13T04:43:29;21.33;;;12.45;;
71343;SDS011;59146;43.850;25.948;2023-07-13T04:45:55;22.65;;;12.75;;
71343;SDS011;59146;43.850;25.948;2023-07-13T04:48:21;20.85;;;12.35;;
71343;SDS011;59146;43.850;25.948;2023-07-13T04:50:47;24.38;;;12.82;;
71343;SDS011;59146;43.850;25.948;2023-07-13T04:53:19;16.52;;;11.73;;
71343;SDS011;59146;43.850;25.948;2023-07-13T04:55:44;21.25;;;12.73;;
71343;SDS011;59146;43.850;25.948;2023-07-13T04:58:10;22.30;;;11.50;;
71343;SDS011;59146;43.850;25.948;2023-07-13T05:00:35;20.50;;;12.70;;
71343;SDS011;59146;43.850;25.948;2023-07-13T05:03:01;22.92;;;12.88;;
71343;SDS011;59146;43.850;25.948;2023-07-13T05:05:28;13.13;;;11.45;;
71343;SDS011;59146;43.850;25.948;2023-07-13T05:07:53;16.77;;;12.82;;
71343;SDS011;59146;43.850;25.948;2023-07-13T05:10:19;23.88;;;12.75;;
71343;SDS011;59146;43.850;25.948;2023-07-13T05:12:45;15.73;;;12.65;;
71343;SDS011;59146;43.850;25.948;2023-07-13T05:15:11;23.60;;;12.15;;
71343;SDS011;59146;43.850;25.948;2023-07-13T05:17:36;19.55;;;12.50;;
71343;SDS011;59146;43.850;25.948;2023-07-13T05:20:04;20.05;;;12.50;;
71343;SDS011;59146;43.850;25.948;2023-07-13T05:22:30;22.75;;;12.85;;
71343;SDS011;59146;43.850;25.948;2023-07-13T05:24:56;18.58;;;12.50;;
71343;SDS011;59146;43.850;25.948;2023-07-13T05:27:21;19.42;;;12.25;;
71343;SDS011;59146;43.850;25.948;2023-07-13T05:29:47;18.63;;;13.05;;
71343;SDS011;59146;43.850;25.948;2023-07-13T05:32:12;18.33;;;11.95;;
71343;SDS011;59146;43.850;25.948;2023-07-13T05:34:38;19.15;;;11.88;;
71343;SDS011;59146;43.850;25.948;2023-07-13T05:37:04;16.27;;;12.45;;
71343;SDS011;59146;43.850;25.948;2023-07-13T05:39:29;25.55;;;13.55;;
71343;SDS011;59146;43.850;25.948;2023-07-13T05:41:55;18.15;;;12.02;;
71343;SDS011;59146;43.850;25.948;2023-07-13T05:44:20;19.45;;;12.40;;
71343;SDS011;59146;43.850;25.948;2023-07-13T05:46:46;17.05;;;13.10;;
71343;SDS011;59146;43.850;25.948;2023-07-13T05:49:11;17.98;;;11.75;;
71343;SDS011;59146;43.850;25.948;2023-07-13T05:51:37;18.52;;;12.05;;
71343;SDS011;59146;43.850;25.948;2023-07-13T05:54:02;18.70;;;12.35;;
71343;SDS011;59146;43.850;25.948;2023-07-13T05:56:28;19.23;;;11.98;;
71343;SDS011;59146;43.850;25.948;2023-07-13T05:58:53;16.20;;;12.15;;
71343;SDS011;59146;43.850;25.948;2023-07-13T06:01:19;18.35;;;12.00;;
71343;SDS011;59146;43.850;25.948;2023-07-13T06:03:46;14.70;;;11.50;;
71343;SDS011;59146;43.850;25.948;2023-07-13T06:06:12;15.70;;;12.02;;
71343;SDS011;59146;43.850;25.948;2023-07-13T06:08:38;25.17;;;11.43;;
71343;SDS011;59146;43.850;25.948;2023-07-13T06:11:05;13.52;;;11.27;;
71343;SDS011;59146;43.850;25.948;2023-07-13T06:13:32;18.50;;;11.35;;
71343;SDS011;59146;43.850;25.948;2023-07-13T06:15:58;13.27;;;11.00;;
71343;SDS011;59146;43.850;25.948;2023-07-13T06:18:23;13.32;;;10.80;;
71343;SDS011;59146;43.850;25.948;2023-07-13T06:20:49;17.05;;;11.27;;
71343;SDS011;59146;43.850;25.948;2023-07-13T06:23:14;15.27;;;10.85;;
71343;SDS011;59146;43.850;25.948;2023-07-13T06:25:40;16.08;;;11.30;;
71343;SDS011;59146;43.850;25.948;2023-07-13T06:28:05;20.80;;;11.48;;
71343;SDS011;59146;43.850;25.948;2023-07-13T06:30:30;15.80;;;10.55;;
71343;SDS011;59146;43.850;25.948;2023-07-13T06:32:57;22.27;;;11.15;;
71343;SDS011;59146;43.850;25.948;2023-07-13T06:35:22;16.23;;;10.32;;
71343;SDS011;59146;43.850;25.948;2023-07-13T06:37:47;19.63;;;10.00;;
71343;SDS011;59146;43.850;25.948;2023-07-13T06:40:13;16.17;;;10.88;;
71343;SDS011;59146;43.850;25.948;2023-07-13T06:42:38;14.63;;;9.68;;
71343;SDS011;59146;43.850;25.948;2023-07-13T06:45:04;13.48;;;9.45;;
71343;SDS011;59146;43.850;25.948;2023-07-13T06:47:29;13.85;;;10.88;;
71343;SDS011;59146;43.850;25.948;2023-07-13T06:49:55;15.77;;;10.10;;
71343;SDS011;59146;43.850;25.948;2023-07-13T06:52:20;15.73;;;10.48;;
71343;SDS011;59146;43.850;25.948;2023-07-13T06:54:46;17.10;;;10.68;;
71343;SDS011;59146;43.850;25.948;2023-07-13T06:57:11;16.05;;;10.02;;
71343;SDS011;59146;43.850;25.948;2023-07-13T06:59:37;15.05;;;10.02;;
71343;SDS011;59146;43.850;25.948;2023-07-13T07:02:02;19.55;;;10.32;;
71343;SDS011;59146;43.850;25.948;2023-07-13T07:04:28;20.15;;;10.73;;
71343;SDS011;59146;43.850;25.948;2023-07-13T07:06:53;13.77;;;10.32;;
71343;SDS011;59146;43.850;25.948;2023-07-13T07:09:19;15.43;;;10.25;;
71343;SDS011;59146;43.850;25.948;2023-07-13T07:11:44;14.30;;;9.98;;
71343;SDS011;59146;43.850;25.948;2023-07-13T07:14:10;16.70;;;10.23;;
71343;SDS011;59146;43.850;25.948;2023-07-13T07:16:35;19.65;;;10.63;;
71343;SDS011;59146;43.850;25.948;2023-07-13T07:19:01;12.05;;;9.52;;
71343;SDS011;59146;43.850;25.948;2023-07-13T07:21:26;16.52;;;9.68;;
71343;SDS011;59146;43.850;25.948;2023-07-13T07:23:52;16.58;;;10.50;;
71343;SDS011;59146;43.850;25.948;2023-07-13T07:26:17;14.60;;;9.75;;
71343;SDS011;59146;43.850;25.948;2023-07-13T07:28:43;18.20;;;10.65;;
71343;SDS011;59146;43.850;25.948;2023-07-13T07:31:09;17.70;;;10.43;;
71343;SDS011;59146;43.850;25.948;2023-07-13T07:33:35;19.23;;;10.45;;
71343;SDS011;59146;43.850;25.948;2023-07-13T07:36:00;16.08;;;10.48;;
71343;SDS011;59146;43.850;25.948;2023-07-13T07:38:26;16.58;;;10.15;;
71343;SDS011;59146;43.850;25.948;2023-07-13T07:40:51;24.52;;;10.65;;
71343;SDS011;59146;43.850;25.948;2023-07-13T07:43:17;14.00;;;10.18;;
71343;SDS011;59146;43.850;25.948;2023-07-13T07:45:44;14.77;;;10.65;;
71343;SDS011;59146;43.850;25.948;2023-07-13T07:48:09;20.77;;;9.60;;
71343;SDS011;59146;43.850;25.948;2023-07-13T07:50:35;15.70;;;10.10;;
71343;SDS011;59146;43.850;25.948;2023-07-13T07:53:01;16.98;;;10.70;;
71343;SDS011;59146;43.850;25.948;2023-07-13T07:55:27;15.10;;;10.90;;
71343;SDS011;59146;43.850;25.948;2023-07-13T07:57:53;13.13;;;10.43;;
71343;SDS011;59146;43.850;25.948;2023-07-13T08:00:18;20.10;;;9.95;;
71343;SDS011;59146;43.850;25.948;2023-07-13T08:02:44;16.02;;;9.48;;
71343;SDS011;59146;43.850;25.948;2023-07-13T08:05:11;17.35;;;10.05;;
71343;SDS011;59146;43.850;25.948;2023-07-13T08:07:37;17.77;;;9.13;;
71343;SDS011;59146;43.850;25.948;2023-07-13T08:10:04;17.48;;;9.60;;
71343;SDS011;59146;43.850;25.948;2023-07-13T08:12:33;11.65;;;9.68;;
71343;SDS011;59146;43.850;25.948;2023-07-13T08:14:59;15.15;;;10.13;;
71343;SDS011;59146;43.850;25.948;2023-07-13T08:17:25;12.18;;;9.07;;
71343;SDS011;59146;43.850;25.948;2023-07-13T08:19:51;12.88;;;9.68;;
71343;SDS011;59146;43.850;25.948;2023-07-13T08:22:16;15.85;;;9.82;;
71343;SDS011;59146;43.850;25.948;2023-07-13T08:24:42;22.38;;;10.05;;
71343;SDS011;59146;43.850;25.948;2023-07-13T08:27:07;24.50;;;10.25;;
71343;SDS011;59146;43.850;25.948;2023-07-13T08:29:33;20.98;;;9.80;;
71343;SDS011;59146;43.850;25.948;2023-07-13T08:31:59;13.07;;;8.75;;
71343;SDS011;59146;43.850;25.948;2023-07-13T08:34:24;11.80;;;9.45;;
71343;SDS011;59146;43.850;25.948;2023-07-13T08:36:49;17.17;;;9.75;;
71343;SDS011;59146;43.850;25.948;2023-07-13T08:39:15;12.57;;;9.30;;
71343;SDS011;59146;43.850;25.948;2023-07-13T08:41:40;18.70;;;8.82;;
71343;SDS011;59146;43.850;25.948;2023-07-13T08:44:07;13.52;;;8.48;;
71343;SDS011;59146;43.850;25.948;2023-07-13T08:46:46;14.45;;;8.38;;
71343;SDS011;59146;43.850;25.948;2023-07-13T08:49:15;23.42;;;10.00;;
71343;SDS011;59146;43.850;25.948;2023-07-13T08:51:44;15.05;;;9.20;;
71343;SDS011;59146;43.850;25.948;2023-07-13T08:56:56;12.27;;;8.40;;
71343;SDS011;59146;43.850;25.948;2023-07-13T08:59:26;16.00;;;9.00;;
71343;SDS011;59146;43.850;25.948;2023-07-13T09:17:56;12.95;;;8.32;;
71343;SDS011;59146;43.850;25.948;2023-07-13T09:23:15;10.18;;;7.93;;
71343;SDS011;59146;43.850;25.948;2023-07-13T09:25:45;14.43;;;7.88;;
71343;SDS011;59146;43.850;25.948;2023-07-13T09:28:19;14.90;;;8.20;;
71343;SDS011;59146;43.850;25.948;2023-07-13T09:30:56;13.13;;;7.35;;
71343;SDS011;59146;43.850;25.948;2023-07-13T09:33:26;14.43;;;8.07;;
71343;SDS011;59146;43.850;25.948;2023-07-13T09:35:54;12.88;;;7.90;;
71343;SDS011;59146;43.850;25.948;2023-07-13T09:38:24;10.57;;;7.85;;
71343;SDS011;59146;43.850;25.948;2023-07-13T09:40:56;13.57;;;7.65;;
71343;SDS011;59146;43.850;25.948;2023-07-13T09:43:22;10.88;;;7.55;;
71343;SDS011;59146;43.850;25.948;2023-07-13T09:45:47;15.82;;;7.65;;
71343;SDS011;59146;43.850;25.948;2023-07-13T09:48:13;15.35;;;7.80;;
71343;SDS011;59146;43.850;25.948;2023-07-13T09:50:40;13.10;;;7.45;;
71343;SDS011;59146;43.850;25.948;2023-07-13T09:53:17;11.48;;;7.25;;
71343;SDS011;59146;43.850;25.948;2023-07-13T09:55:48;15.75;;;7.90;;
71343;SDS011;59146;43.850;25.948;2023-07-13T09:58:15;9.02;;;6.90;;
71343;SDS011;59146;43.850;25.948;2023-07-13T10:00:53;19.35;;;7.38;;
71343;SDS011;59146;43.850;25.948;2023-07-13T10:03:23;16.20;;;7.20;;
71343;SDS011;59146;43.850;25.948;2023-07-13T10:08:26;14.07;;;7.30;;
71343;SDS011;59146;43.850;25.948;2023-07-13T10:10:59;11.55;;;6.32;;
71343;SDS011;59146;43.850;25.948;2023-07-13T10:13:29;19.33;;;7.25;;
71343;SDS011;59146;43.850;25.948;2023-07-13T10:16:02;21.88;;;7.63;;
71343;SDS011;59146;43.850;25.948;2023-07-13T10:18:31;16.53;;;6.60;;
71343;SDS011;59146;43.850;25.948;2023-07-13T10:21:21;9.32;;;6.82;;
71343;SDS011;59146;43.850;25.948;2023-07-13T10:23:56;11.18;;;7.00;;
71343;SDS011;59146;43.850;25.948;2023-07-13T10:26:31;17.73;;;7.32;;
71343;SDS011;59146;43.850;25.948;2023-07-13T10:29:01;10.88;;;7.38;;
71343;SDS011;59146;43.850;25.948;2023-07-13T10:31:32;12.98;;;7.28;;
71343;SDS011;59146;43.850;25.948;2023-07-13T10:33:59;11.60;;;7.50;;
71343;SDS011;59146;43.850;25.948;2023-07-13T10:39:05;14.40;;;7.03;;
71343;SDS011;59146;43.850;25.948;2023-07-13T10:41:36;11.68;;;6.65;;
71343;SDS011;59146;43.850;25.948;2023-07-13T10:44:07;8.88;;;7.05;;
71343;SDS011;59146;43.850;25.948;2023-07-13T10:46:58;13.98;;;6.15;;
71343;SDS011;59146;43.850;25.948;2023-07-13T10:49:27;11.98;;;7.38;;
71343;SDS011;59146;43.850;25.948;2023-07-13T10:51:55;19.92;;;7.18;;
71343;SDS011;59146;43.850;25.948;2023-07-13T10:54:31;12.05;;;6.70;;
71343;SDS011;59146;43.850;25.948;2023-07-13T10:59:33;13.40;;;7.35;;
71343;SDS011;59146;43.850;25.948;2023-07-13T11:02:08;15.18;;;6.05;;
71343;SDS011;59146;43.850;25.948;2023-07-13T11:04:44;7.95;;;6.53;;
71343;SDS011;59146;43.850;25.948;2023-07-13T11:07:22;19.80;;;6.68;;
71343;SDS011;59146;43.850;25.948;2023-07-13T11:09:52;12.77;;;6.57;;
71343;SDS011;59146;43.850;25.948;2023-07-13T11:19:52;13.32;;;6.82;;
71343;SDS011;59146;43.850;25.948;2023-07-13T11:22:23;12.35;;;6.70;;
71343;SDS011;59146;43.850;25.948;2023-07-13T11:24:52;15.48;;;6.75;;
71343;SDS011;59146;43.850;25.948;2023-07-13T11:30:06;14.57;;;5.80;;
71343;SDS011;59146;43.850;25.948;2023-07-13T11:35:50;15.52;;;5.88;;
71343;SDS011;59146;43.850;25.948;2023-07-13T11:41:54;19.10;;;6.15;;
71343;SDS011;59146;43.850;25.948;2023-07-13T11:44:24;28.70;;;7.03;;
71343;SDS011;59146;43.850;25.948;2023-07-13T11:46:52;14.25;;;6.32;;
71343;SDS011;59146;43.850;25.948;2023-07-13T11:49:20;20.20;;;6.18;;
71343;SDS011;59146;43.850;25.948;2023-07-13T11:51:47;14.27;;;6.03;;
71343;SDS011;59146;43.850;25.948;2023-07-13T11:56:52;19.15;;;5.85;;
71343;SDS011;59146;43.850;25.948;2023-07-13T11:59:19;15.90;;;6.18;;
71343;SDS011;59146;43.850;25.948;2023-07-13T12:01:47;8.48;;;5.68;;
71343;SDS011;59146;43.850;25.948;2023-07-13T12:04:25;11.10;;;5.65;;
71343;SDS011;59146;43.850;25.948;2023-07-13T12:06:57;16.70;;;6.20;;
71343;SDS011;59146;43.850;25.948;2023-07-13T12:09:28;10.73;;;5.78;;
71343;SDS011;59146;43.850;25.948;2023-07-13T12:11:56;9.73;;;5.15;;
71343;SDS011;59146;43.850;25.948;2023-07-13T12:14:23;17.38;;;5.75;;
71343;SDS011;59146;43.850;25.948;2023-07-13T12:16:50;12.25;;;4.90;;
71343;SDS011;59146;43.850;25.948;2023-07-13T12:19:36;15.43;;;5.75;;
71343;SDS011;59146;43.850;25.948;2023-07-13T12:22:01;13.55;;;5.22;;
71343;SDS011;59146;43.850;25.948;2023-07-13T12:24:27;14.95;;;6.28;;
71343;SDS011;59146;43.850;25.948;2023-07-13T12:26:54;10.23;;;5.97;;
71343;SDS011;59146;43.850;25.948;2023-07-13T12:29:29;14.35;;;5.60;;
71343;SDS011;59146;43.850;25.948;2023-07-13T12:31:56;11.40;;;5.65;;
71343;SDS011;59146;43.850;25.948;2023-07-13T12:34:22;19.45;;;5.47;;
71343;SDS011;59146;43.850;25.948;2023-07-13T12:39:25;9.05;;;5.03;;
71343;SDS011;59146;43.850;25.948;2023-07-13T12:44:21;15.50;;;4.85;;
71343;SDS011;59146;43.850;25.948;2023-07-13T12:46:55;10.35;;;4.95;;
71343;SDS011;59146;43.850;25.948;2023-07-13T12:49:24;10.60;;;4.88;;
71343;SDS011;59146;43.850;25.948;2023-07-13T12:51:57;14.35;;;6.05;;
71343;SDS011;59146;43.850;25.948;2023-07-13T12:54:25;16.67;;;5.10;;
71343;SDS011;59146;43.850;25.948;2023-07-13T12:56:52;13.82;;;5.25;;
71343;SDS011;59146;43.850;25.948;2023-07-13T12:59:20;13.30;;;5.53;;
71343;SDS011;59146;43.850;25.948;2023-07-13T13:01:47;20.33;;;5.13;;
71343;SDS011;59146;43.850;25.948;2023-07-13T13:04:14;19.17;;;4.95;;
71343;SDS011;59146;43.850;25.948;2023-07-13T13:06:41;11.63;;;4.47;;
71343;SDS011;59146;43.850;25.948;2023-07-13T13:09:12;16.25;;;5.25;;
71343;SDS011;59146;43.850;25.948;2023-07-13T13:11:40;15.98;;;5.40;;
71343;SDS011;59146;43.850;25.948;2023-07-13T13:14:06;11.73;;;4.82;;
71343;SDS011;59146;43.850;25.948;2023-07-13T13:19:21;12.45;;;4.65;;
71343;SDS011;59146;43.850;25.948;2023-07-13T13:21:49;16.83;;;4.97;;
71343;SDS011;59146;43.850;25.948;2023-07-13T13:24:18;10.73;;;5.70;;
71343;SDS011;59146;43.850;25.948;2023-07-13T13:26:46;13.90;;;5.25;;
71343;SDS011;59146;43.850;25.948;2023-07-13T13:29:16;12.73;;;6.13;;
71343;SDS011;59146;43.850;25.948;2023-07-13T13:31:43;17.90;;;5.38;;
71343;SDS011;59146;43.850;25.948;2023-07-13T13:34:10;12.20;;;4.50;;
71343;SDS011;59146;43.850;25.948;2023-07-13T13:36:36;12.65;;;5.30;;
71343;SDS011;59146;43.850;25.948;2023-07-13T13:39:05;14.35;;;5.57;;
71343;SDS011;59146;43.850;25.948;2023-07-13T13:41:41;13.37;;;5.60;;
71343;SDS011;59146;43.850;25.948;2023-07-13T13:44:08;8.00;;;6.07;;
71343;SDS011;59146;43.850;25.948;2023-07-13T13:46:34;9.23;;;4.95;;
71343;SDS011;59146;43.850;25.948;2023-07-13T13:49:01;9.82;;;5.10;;
71343;SDS011;59146;43.850;25.948;2023-07-13T13:51:26;16.42;;;5.57;;
71343;SDS011;59146;43.850;25.948;2023-07-13T13:53:52;8.98;;;5.53;;
71343;SDS011;59146;43.850;25.948;2023-07-13T13:56:18;15.32;;;5.82;;
71343;SDS011;59146;43.850;25.948;2023-07-13T13:58:44;13.52;;;4.72;;
71343;SDS011;59146;43.850;25.948;2023-07-13T14:01:18;15.65;;;5.97;;
71343;SDS011;59146;43.850;25.948;2023-07-13T14:03:45;11.23;;;5.18;;
71343;SDS011;59146;43.850;25.948;2023-07-13T14:06:13;13.45;;;5.25;;
71343;SDS011;59146;43.850;25.948;2023-07-13T14:08:40;9.95;;;5.63;;
71343;SDS011;59146;43.850;25.948;2023-07-13T14:11:07;13.90;;;5.85;;
71343;SDS011;59146;43.850;25.948;2023-07-13T14:13:38;11.02;;;5.55;;
71343;SDS011;59146;43.850;25.948;2023-07-13T14:16:12;13.88;;;5.88;;
71343;SDS011;59146;43.850;25.948;2023-07-13T14:18:42;17.17;;;5.20;;
71343;SDS011;59146;43.850;25.948;2023-07-13T14:21:19;14.90;;;6.18;;
71343;SDS011;59146;43.850;25.948;2023-07-13T14:23:46;13.65;;;5.30;;
71343;SDS011;59146;43.850;25.948;2023-07-13T14:28:49;12.98;;;5.50;;
71343;SDS011;59146;43.850;25.948;2023-07-13T14:31:17;14.90;;;6.25;;
71343;SDS011;59146;43.850;25.948;2023-07-13T14:33:44;13.80;;;5.45;;
71343;SDS011;59146;43.850;25.948;2023-07-13T14:36:20;15.93;;;6.15;;
71343;SDS011;59146;43.850;25.948;2023-07-13T14:38:46;19.20;;;5.05;;
71343;SDS011;59146;43.850;25.948;2023-07-13T14:41:12;22.27;;;5.65;;
71343;SDS011;59146;43.850;25.948;2023-07-13T14:43:37;14.90;;;5.53;;
71343;SDS011;59146;43.850;25.948;2023-07-13T14:46:03;13.50;;;5.15;;
71343;SDS011;59146;43.850;25.948;2023-07-13T14:48:29;11.98;;;4.88;;
71343;SDS011;59146;43.850;25.948;2023-07-13T14:50:56;14.40;;;5.20;;
71343;SDS011;59146;43.850;25.948;2023-07-13T14:53:22;15.65;;;5.70;;
71343;SDS011;59146;43.850;25.948;2023-07-13T14:55:49;15.45;;;7.25;;
71343;SDS011;59146;43.850;25.948;2023-07-13T14:58:15;12.70;;;5.28;;
71343;SDS011;59146;43.850;25.948;2023-07-13T15:00:40;14.00;;;5.10;;
71343;SDS011;59146;43.850;25.948;2023-07-13T15:03:08;14.95;;;5.65;;
71343;SDS011;59146;43.850;25.948;2023-07-13T15:05:44;13.40;;;6.07;;
71343;SDS011;59146;43.850;25.948;2023-07-13T15:08:10;12.60;;;5.80;;
71343;SDS011;59146;43.850;25.948;2023-07-13T15:10:37;12.18;;;5.95;;
71343;SDS011;59146;43.850;25.948;2023-07-13T15:13:15;12.13;;;5.28;;
71343;SDS011;59146;43.850;25.948;2023-07-13T15:15:41;19.50;;;4.93;;